Time;durP1;ratioP1;P1;durP2;ratioP2;P2;SDS_P1;SDS_P2;PMS_P1;PMS_P2;Temp;Humidity;BMP_temperature;BMP_pressure;BME280_temperature;BME280_humidity;BME280_pressure;Samples;Min_cycle;Max_cycle;Signal;HPM_P1;HPM_P2
2023/08/24 00:00:45;;;;;;;5.72;3.25;;;17.00;99.90;;;;;;6244616;23;20042;-42
2023/08/24 00:03:12;;;;;;;6.10;3.42;;;17.00;99.90;;;;;;6246426;23;20016;-42
2023/08/24 00:05:38;;;;;;;3.67;3.38;;;16.90;99.90;;;;;;6247161;23;20138;-44
2023/08/24 00:08:08;;;;;;;5.75;4.03;;;16.90;99.90;;;;;;6247915;23;20015;-46
2023/08/24 00:10:34;;;;;;;5.53;3.80;;;16.90;99.90;;;;;;6247280;23;20022;-42
2023/08/24 00:13:00;;;;;;;7.43;4.00;;;16.90;99.90;;;;;;6247267;23;20039;-42
2023/08/24 00:15:26;;;;;;;4.70;4.22;;;16.80;99.90;;;;;;6220598;23;20012;-42
2023/08/24 00:17:52;;;;;;;4.50;4.07;;;16.70;99.90;;;;;;6246961;23;20008;-45
2023/08/24 00:20:18;;;;;;;5.03;3.85;;;16.80;99.90;;;;;;6247251;23;20070;-43
2023/08/24 00:22:43;;;;;;;6.28;4.50;;;16.70;99.90;;;;;;6246679;23;20091;-43
2023/08/24 00:25:10;;;;;;;6.22;4.57;;;16.70;99.90;;;;;;6247727;23;20094;-42
2023/08/24 00:27:36;;;;;;;5.43;4.10;;;16.70;99.90;;;;;;6247193;23;20016;-43
2023/08/24 00:30:07;;;;;;;5.18;4.53;;;16.60;99.90;;;;;;6220013;23;20050;-44
2023/08/24 00:32:36;;;;;;;5.07;4.32;;;16.60;99.90;;;;;;6246963;23;20058;-43
2023/08/24 00:35:10;;;;;;;5.10;4.55;;;16.60;99.90;;;;;;6246752;23;20468;-44
2023/08/24 00:37:35;;;;;;;5.78;4.78;;;16.60;99.90;;;;;;6245332;23;20022;-42
2023/08/24 00:40:04;;;;;;;4.88;4.40;;;16.50;99.90;;;;;;6244741;23;20090;-44
2023/08/24 00:42:31;;;;;;;7.60;4.53;;;16.50;99.90;;;;;;6218150;23;20012;-45
2023/08/24 00:44:58;;;;;;;6.15;5.15;;;16.50;99.90;;;;;;6244549;23;20020;-45
2023/08/24 00:47:24;;;;;;;6.13;4.85;;;16.40;99.90;;;;;;6244405;23;20091;-43
2023/08/24 00:49:50;;;;;;;6.35;4.93;;;16.40;99.90;;;;;;6243876;23;20449;-42
2023/08/24 00:52:17;;;;;;;5.82;4.95;;;16.40;99.90;;;;;;6216893;23;20047;-44
2023/08/24 00:54:42;;;;;;;6.63;5.93;;;16.40;99.90;;;;;;6243374;23;20012;-42
2023/08/24 00:57:08;;;;;;;7.30;5.45;;;16.40;99.90;;;;;;6243958;23;20012;-42
2023/08/24 00:59:35;;;;;;;7.55;5.50;;;16.30;99.90;;;;;;6244294;23;20016;-42
2023/08/24 01:02:02;;;;;;;7.03;5.50;;;16.30;99.90;;;;;;6244509;23;20357;-42
2023/08/24 01:04:27;;;;;;;6.20;5.50;;;16.30;99.90;;;;;;6217310;23;20395;-44
2023/08/24 01:06:53;;;;;;;9.73;5.82;;;16.30;99.90;;;;;;6246994;23;20251;-42
2023/08/24 01:09:20;;;;;;;6.43;5.82;;;16.20;99.90;;;;;;6247291;23;20024;-42
2023/08/24 01:11:59;;;;;;;7.85;5.65;;;16.20;99.90;;;;;;6246555;23;20108;-42
2023/08/24 01:14:54;;;;;;;7.22;6.25;;;16.20;99.90;;;;;;6246765;23;20016;-47
2023/08/24 01:17:23;;;;;;;8.10;6.32;;;16.20;99.90;;;;;;6242504;23;20020;-42
2023/08/24 01:19:50;;;;;;;9.35;6.43;;;16.30;99.90;;;;;;6245886;23;20016;-44
2023/08/24 01:22:27;;;;;;;7.35;6.43;;;16.20;99.90;;;;;;6246371;23;20340;-43
2023/08/24 01:25:34;;;;;;;6.93;6.18;;;16.20;99.90;;;;;;6246177;23;20050;-42
2023/08/24 01:28:01;;;;;;;10.75;6.40;;;16.30;99.90;;;;;;6204311;23;20047;-43
2023/08/24 01:30:28;;;;;;;11.13;6.75;;;16.30;99.90;;;;;;6246409;23;20019;-43
2023/08/24 01:32:54;;;;;;;9.20;6.97;;;16.30;99.90;;;;;;6246192;23;20027;-44
2023/08/24 01:35:19;;;;;;;8.20;6.22;;;16.30;99.90;;;;;;6246153;23;20012;-42
2023/08/24 01:37:45;;;;;;;9.80;6.22;;;16.30;99.90;;;;;;6245624;23;20043;-42
2023/08/24 01:40:23;;;;;;;9.55;6.53;;;16.40;99.90;;;;;;6243884;23;20019;-44
2023/08/24 01:42:58;;;;;;;10.02;6.30;;;16.40;99.90;;;;;;6243638;23;20027;-43
2023/08/24 01:45:28;;;;;;;11.15;6.68;;;16.40;99.90;;;;;;6243247;23;20008;-44
2023/08/24 01:47:54;;;;;;;8.90;6.63;;;16.40;99.90;;;;;;6243548;23;20016;-45
2023/08/24 01:50:20;;;;;;;6.88;6.18;;;16.50;99.90;;;;;;6244041;23;20013;-46
2023/08/24 01:52:46;;;;;;;10.85;7.07;;;16.50;99.90;;;;;;6244179;23;20062;-42
2023/08/24 01:55:13;;;;;;;10.48;6.90;;;16.50;99.90;;;;;;6243772;23;20452;-42
2023/08/24 01:57:38;;;;;;;13.80;7.50;;;16.50;99.90;;;;;;6243404;23;20016;-44
2023/08/24 02:00:09;;;;;;;8.27;7.03;;;16.50;99.90;;;;;;6243772;23;20034;-45
2023/08/24 02:02:35;;;;;;;9.35;7.55;;;16.50;99.90;;;;;;6244511;23;20024;-44
2023/08/24 02:05:02;;;;;;;9.27;7.32;;;16.60;99.90;;;;;;6244386;23;20311;-44
2023/08/24 02:07:28;;;;;;;9.93;7.33;;;16.50;99.90;;;;;;6216675;23;20012;-43
2023/08/24 02:09:53;;;;;;;10.60;7.25;;;16.50;99.90;;;;;;6221415;23;20471;-43
2023/08/24 02:12:19;;;;;;;8.05;7.13;;;16.50;99.90;;;;;;6243654;23;20509;-42
2023/08/24 02:14:45;;;;;;;10.15;7.20;;;16.50;99.90;;;;;;6246229;23;20012;-46
2023/08/24 02:17:11;;;;;;;10.85;7.35;;;16.50;99.90;;;;;;6246013;23;20012;-45
2023/08/24 02:19:36;;;;;;;8.65;7.22;;;16.50;99.90;;;;;;6246064;23;20058;-43
2023/08/24 02:22:02;;;;;;;8.95;7.00;;;16.50;99.90;;;;;;6245899;23;20012;-43
2023/08/24 02:24:28;;;;;;;8.75;6.82;;;16.50;99.90;;;;;;6246426;23;20294;-44
2023/08/24 02:26:53;;;;;;;11.18;7.78;;;16.60;99.90;;;;;;6245839;23;20042;-42
2023/08/24 02:29:19;;;;;;;8.85;7.40;;;16.60;99.90;;;;;;6245813;23;20069;-45
2023/08/24 02:31:45;;;;;;;10.00;8.23;;;16.60;99.90;;;;;;6245833;23;20016;-44
2023/08/24 02:34:10;;;;;;;12.60;8.32;;;16.60;99.90;;;;;;6219246;23;20020;-43
2023/08/24 02:36:36;;;;;;;8.57;7.78;;;16.60;99.90;;;;;;6245279;23;20026;-46
2023/08/24 02:39:02;;;;;;;9.63;7.85;;;16.60;99.90;;;;;;6244996;23;20083;-46
2023/08/24 02:41:28;;;;;;;9.55;8.52;;;16.60;99.90;;;;;;6245234;23;20452;-43
2023/08/24 02:43:53;;;;;;;8.43;7.40;;;16.70;99.90;;;;;;6245629;23;20019;-42
2023/08/24 02:46:21;;;;;;;9.77;8.10;;;16.70;99.90;;;;;;6245353;23;20048;-44
2023/08/24 02:48:46;;;;;;;9.43;8.43;;;16.60;99.90;;;;;;6242698;23;20448;-46
2023/08/24 02:51:13;;;;;;;10.50;8.45;;;16.60;99.90;;;;;;6242997;23;20109;-44
2023/08/24 02:53:39;;;;;;;11.82;8.73;;;16.70;99.90;;;;;;6243380;23;20139;-42
2023/08/24 02:56:05;;;;;;;12.90;9.05;;;16.70;99.90;;;;;;6242161;23;20373;-43
2023/08/24 02:58:31;;;;;;;10.23;7.85;;;16.70;99.90;;;;;;6216010;23;20059;-44
2023/08/24 03:00:57;;;;;;;12.68;9.40;;;16.70;99.90;;;;;;6243246;23;20020;-43
2023/08/24 03:03:24;;;;;;;9.02;8.13;;;16.70;99.90;;;;;;6243040;23;20016;-43
2023/08/24 03:05:56;;;;;;;9.60;8.73;;;16.70;99.90;;;;;;6241574;23;20046;-43
2023/08/24 03:08:22;;;;;;;8.32;7.53;;;16.70;99.90;;;;;;6243279;23;20065;-42
2023/08/24 03:10:48;;;;;;;9.38;8.27;;;16.60;99.90;;;;;;6243585;23;20436;-42
2023/08/24 03:13:14;;;;;;;13.70;8.02;;;16.50;99.90;;;;;;6242663;23;20012;-42
2023/08/24 03:15:39;;;;;;;10.90;8.70;;;16.50;99.90;;;;;;6242963;23;20062;-43
2023/08/24 03:18:05;;;;;;;10.18;9.10;;;16.50;99.90;;;;;;6242661;23;20012;-44
2023/08/24 03:20:31;;;;;;;9.75;8.75;;;16.50;99.90;;;;;;6245031;23;20016;-42
2023/08/24 03:22:57;;;;;;;11.95;8.57;;;16.50;99.90;;;;;;6244748;23;20020;-43
2023/08/24 03:25:23;;;;;;;10.68;8.27;;;16.50;99.90;;;;;;6244526;23;20523;-42
2023/08/24 03:27:49;;;;;;;9.40;8.27;;;16.50;99.90;;;;;;6244703;23;20048;-47
2023/08/24 03:30:15;;;;;;;10.98;9.25;;;16.50;99.90;;;;;;6244816;23;20012;-43
2023/08/24 03:32:41;;;;;;;11.32;9.13;;;16.40;99.90;;;;;;6244695;23;20450;-42
2023/08/24 03:35:07;;;;;;;12.95;9.77;;;16.40;99.90;;;;;;6244306;23;20043;-43
2023/08/24 03:37:33;;;;;;;10.02;8.63;;;16.40;99.90;;;;;;6244875;23;20008;-42
2023/08/24 03:39:59;;;;;;;9.98;8.70;;;16.40;99.90;;;;;;6245428;23;20016;-42
2023/08/24 03:42:25;;;;;;;11.55;8.57;;;16.30;99.90;;;;;;6245062;23;20012;-44
2023/08/24 03:44:50;;;;;;;10.10;9.05;;;16.40;99.90;;;;;;6244126;23;20083;-43
2023/08/24 03:47:16;;;;;;;12.15;9.48;;;16.30;99.90;;;;;;6245014;23;20008;-44
2023/08/24 03:49:45;;;;;;;10.25;9.10;;;16.30;99.90;;;;;;6245478;23;20051;-44
2023/08/24 03:52:10;;;;;;;10.77;9.32;;;16.30;99.90;;;;;;6244460;23;20016;-43
2023/08/24 03:54:36;;;;;;;11.35;9.98;;;16.30;99.90;;;;;;6243994;23;20048;-42
2023/08/24 03:57:02;;;;;;;12.95;9.98;;;16.30;99.90;;;;;;6244077;23;20535;-45
2023/08/24 03:59:28;;;;;;;12.40;9.13;;;16.20;99.90;;;;;;6244852;23;20047;-44
2023/08/24 04:01:54;;;;;;;10.68;9.57;;;16.20;99.90;;;;;;6243204;23;20095;-46
2023/08/24 04:04:20;;;;;;;11.77;10.10;;;16.20;99.90;;;;;;6243654;23;20020;-42
2023/08/24 04:06:45;;;;;;;13.30;10.00;;;16.20;99.90;;;;;;6244441;23;20026;-42
2023/08/24 04:09:11;;;;;;;11.88;10.25;;;16.10;99.90;;;;;;6244269;23;20048;-43
2023/08/24 04:11:37;;;;;;;11.40;10.27;;;16.10;99.90;;;;;;6244263;23;20031;-45
2023/08/24 04:14:02;;;;;;;13.40;11.40;;;16.10;99.90;;;;;;6245024;23;20016;-42
2023/08/24 04:16:28;;;;;;;11.93;10.73;;;16.10;99.90;;;;;;6243787;23;20027;-44
2023/08/24 04:18:53;;;;;;;14.98;11.02;;;16.00;99.90;;;;;;6244230;23;20091;-43
2023/08/24 04:21:19;;;;;;;12.55;10.48;;;16.00;99.90;;;;;;6244214;23;20411;-44
2023/08/24 04:23:45;;;;;;;11.45;10.30;;;16.00;99.90;;;;;;6243942;23;20015;-43
2023/08/24 04:26:11;;;;;;;11.88;10.82;;;16.00;99.90;;;;;;6243840;23;20306;-44
2023/08/24 04:28:37;;;;;;;14.97;10.50;;;16.00;99.90;;;;;;6244220;23;20016;-42
2023/08/24 04:31:03;;;;;;;11.40;10.23;;;16.00;99.90;;;;;;6216594;23;20016;-42
2023/08/24 04:33:29;;;;;;;12.20;11.00;;;15.90;99.90;;;;;;6217008;23;20039;-43
2023/08/24 04:35:54;;;;;;;12.75;11.45;;;15.90;99.90;;;;;;6244062;23;20539;-44
2023/08/24 04:38:20;;;;;;;13.25;10.35;;;15.90;99.90;;;;;;6217232;23;20444;-42
2023/08/24 04:40:51;;;;;;;11.88;10.60;;;15.80;99.90;;;;;;6244996;23;20027;-42
2023/08/24 04:43:17;;;;;;;14.27;11.30;;;15.90;99.90;;;;;;6243926;23;20047;-42
2023/08/24 04:45:43;;;;;;;11.13;10.00;;;15.80;99.90;;;;;;6244288;23;20016;-43
2023/08/24 04:48:09;;;;;;;13.93;11.13;;;15.80;99.90;;;;;;6243989;23;20326;-42
2023/08/24 04:50:34;;;;;;;12.60;11.30;;;15.80;99.90;;;;;;6243917;23;20030;-46
2023/08/24 04:53:00;;;;;;;11.95;10.75;;;15.80;99.90;;;;;;6243808;23;20056;-43
2023/08/24 04:55:25;;;;;;;12.60;10.77;;;15.80;99.90;;;;;;6244192;23;20047;-44
2023/08/24 04:57:51;;;;;;;15.32;10.05;;;15.80;99.90;;;;;;6244284;23;20023;-45
2023/08/24 05:00:17;;;;;;;13.45;10.35;;;15.80;99.90;;;;;;6244711;23;20015;-44
2023/08/24 05:02:43;;;;;;;13.25;10.52;;;15.80;99.90;;;;;;6244120;23;20328;-42
2023/08/24 05:05:13;;;;;;;14.07;10.60;;;15.90;99.90;;;;;;6243167;23;20012;-43
2023/08/24 05:07:40;;;;;;;11.23;9.73;;;15.90;99.90;;;;;;6246432;23;20012;-43
2023/08/24 05:10:06;;;;;;;13.13;10.37;;;16.00;99.90;;;;;;6246917;23;20024;-42
2023/08/24 05:12:35;;;;;;;12.50;10.07;;;16.00;99.90;;;;;;6246846;23;20336;-44
2023/08/24 05:15:01;;;;;;;13.20;10.50;;;16.10;99.90;;;;;;6246938;23;20012;-44
2023/08/24 05:17:28;;;;;;;11.15;9.93;;;16.10;99.90;;;;;;6246226;23;20016;-44
2023/08/24 05:19:56;;;;;;;11.80;9.25;;;16.20;99.90;;;;;;6246854;23;20027;-43
2023/08/24 05:22:22;;;;;;;10.63;8.98;;;16.20;99.90;;;;;;6246724;23;20023;-45
2023/08/24 05:24:48;;;;;;;9.20;7.95;;;16.30;99.90;;;;;;6246513;23;20047;-44
2023/08/24 05:27:13;;;;;;;10.10;8.18;;;16.40;99.90;;;;;;6246496;23;20071;-43
2023/08/24 05:29:39;;;;;;;8.70;7.78;;;16.40;99.90;;;;;;6246654;23;20344;-43
2023/08/24 05:32:05;;;;;;;8.98;7.75;;;16.50;99.90;;;;;;6246250;23;20459;-43
2023/08/24 05:34:30;;;;;;;9.10;7.68;;;16.60;99.90;;;;;;6246386;23;20016;-42
2023/08/24 05:36:56;;;;;;;9.80;7.68;;;16.60;99.90;;;;;;6243077;23;20035;-44
2023/08/24 05:39:22;;;;;;;10.60;7.55;;;16.70;99.90;;;;;;6243831;23;20058;-44
2023/08/24 05:41:51;;;;;;;10.48;7.82;;;16.80;99.90;;;;;;6243545;23;20428;-44
2023/08/24 05:44:18;;;;;;;8.18;7.38;;;17.10;99.90;;;;;;6246240;23;20389;-44
2023/08/24 05:46:44;;;;;;;8.05;7.13;;;;;;;;;;6247234;23;20051;-45
2023/08/24 05:49:10;;;;;;;8.23;7.35;;;18.20;99.90;;;;;;6246969;23;20031;-43
2023/08/24 05:51:36;;;;;;;9.55;6.65;;;19.60;99.90;;;;;;6246635;23;20015;-43
2023/08/24 05:54:02;;;;;;;8.10;7.13;;;19.60;99.90;;;;;;6244705;23;20066;-42
2023/08/24 05:56:27;;;;;;;10.98;6.78;;;20.40;99.90;;;;;;6245673;23;20020;-43
2023/08/24 05:58:54;;;;;;;7.82;6.97;;;20.50;99.90;;;;;;6245670;23;20008;-42
2023/08/24 06:01:20;;;;;;;7.28;6.30;;;20.90;99.90;;;;;;6245597;23;20020;-43
2023/08/24 06:03:46;;;;;;;7.22;5.70;;;21.50;99.90;;;;;;6244628;23;20457;-43
2023/08/24 06:06:12;;;;;;;8.98;6.20;;;21.90;99.90;;;;;;6244847;23;20339;-45
2023/08/24 06:08:37;;;;;;;8.43;6.07;;;22.10;99.90;;;;;;6244241;23;20008;-43
2023/08/24 06:11:03;;;;;;;7.53;6.38;;;22.30;99.90;;;;;;6218331;23;20011;-44
2023/08/24 06:13:29;;;;;;;6.90;6.15;;;22.50;99.90;;;;;;6245080;23;20050;-44
2023/08/24 06:15:54;;;;;;;11.10;7.00;;;22.80;99.90;;;;;;6248173;23;20008;-42
2023/08/24 06:18:20;;;;;;;7.35;6.60;;;23.10;99.90;;;;;;6242892;23;20061;-43
2023/08/24 06:20:48;;;;;;;6.95;5.85;;;22.90;99.90;;;;;;6245000;23;20081;-45
2023/08/24 06:23:16;;;;;;;8.38;6.53;;;23.60;99.90;;;;;;6244896;23;20313;-44
2023/08/24 06:25:41;;;;;;;10.65;6.50;;;23.80;99.90;;;;;;6243894;23;20012;-45
2023/08/24 06:28:08;;;;;;;11.15;6.80;;;24.00;99.90;;;;;;6242936;23;20059;-44
2023/08/24 06:30:38;;;;;;;8.70;7.07;;;24.10;99.90;;;;;;6244496;23;20018;-44
2023/08/24 06:33:05;;;;;;;7.85;6.57;;;24.00;99.90;;;;;;6243606;23;20235;-43
2023/08/24 06:35:30;;;;;;;9.00;7.70;;;24.40;99.90;;;;;;6246124;23;20014;-43
2023/08/24 06:37:56;;;;;;;10.23;6.95;;;23.50;99.90;;;;;;6243684;23;20047;-45
2023/08/24 06:40:22;;;;;;;8.75;7.30;;;23.60;99.90;;;;;;6245278;23;20452;-44
2023/08/24 06:42:47;;;;;;;8.00;7.20;;;23.80;99.90;;;;;;6244889;23;20017;-42
2023/08/24 06:45:13;;;;;;;9.95;7.38;;;24.10;99.90;;;;;;6244984;23;20018;-44
2023/08/24 06:47:39;;;;;;;10.88;8.00;;;24.50;99.90;;;;;;6217953;23;20112;-46
2023/08/24 06:50:06;;;;;;;9.70;8.32;;;24.70;99.90;;;;;;6245249;23;20043;-44
2023/08/24 06:52:32;;;;;;;10.30;7.55;;;24.60;99.90;;;;;;6245321;23;20077;-42
2023/08/24 06:55:01;;;;;;;9.32;8.02;;;24.90;99.90;;;;;;6246092;23;20456;-43
2023/08/24 06:57:26;;;;;;;11.65;8.80;;;25.00;99.90;;;;;;6245351;23;20050;-44
2023/08/24 06:59:52;;;;;;;8.32;7.53;;;24.60;99.90;;;;;;6244659;23;20305;-42
2023/08/24 07:02:18;;;;;;;9.02;8.00;;;24.70;99.90;;;;;;6244845;23;20065;-43
2023/08/24 07:04:44;;;;;;;10.65;8.73;;;24.60;99.90;;;;;;6246095;23;20012;-43
2023/08/24 07:07:10;;;;;;;11.25;8.30;;;24.80;99.90;;;;;;6245550;23;20017;-45
2023/08/24 07:09:36;;;;;;;9.27;7.72;;;24.90;99.90;;;;;;6219179;23;20058;-43
2023/08/24 07:12:03;;;;;;;9.35;7.53;;;24.90;99.90;;;;;;6245118;23;20110;-46
2023/08/24 07:14:29;;;;;;;11.65;8.13;;;25.20;99.90;;;;;;6245834;23;20448;-43
2023/08/24 07:19:20;;;;;;;9.70;7.55;;;25.70;99.90;;;;;;6236378;22;20047;-42
2023/08/24 07:21:46;;;;;;;10.50;7.38;;;25.60;99.90;;;;;;6244206;23;20016;-44
2023/08/24 07:24:12;;;;;;;8.23;7.38;;;25.00;99.90;;;;;;6213883;22;20009;-45
2023/08/24 07:26:40;;;;;;;13.50;9.80;;;24.70;99.90;;;;;;6243703;22;20024;-43
2023/08/24 07:29:05;;;;;;;10.50;9.38;;;23.70;99.90;;;;;;6244721;22;20078;-43
2023/08/24 07:31:31;;;;;;;10.90;9.40;;;23.60;99.90;;;;;;6245973;23;20016;-45
2023/08/24 07:33:56;;;;;;;12.20;10.10;;;23.20;99.90;;;;;;6245303;23;20031;-44
2023/08/24 07:36:22;;;;;;;13.88;10.18;;;23.10;99.90;;;;;;6245448;22;20099;-45
2023/08/24 07:38:48;;;;;;;9.38;8.45;;;22.80;99.90;;;;;;6244467;23;20023;-45
2023/08/24 07:41:13;;;;;;;9.68;8.60;;;22.60;99.90;;;;;;6244772;23;20433;-42
2023/08/24 07:43:39;;;;;;;9.98;8.18;;;22.40;99.90;;;;;;6242851;23;20016;-42
2023/08/24 07:46:05;;;;;;;9.05;8.13;;;22.60;99.90;;;;;;6242713;23;20310;-44
2023/08/24 07:48:31;;;;;;;10.63;8.57;;;22.70;99.90;;;;;;6242298;22;20086;-44
2023/08/24 07:50:56;;;;;;;10.60;8.65;;;22.40;99.90;;;;;;6241675;23;20095;-43
2023/08/24 07:53:22;;;;;;;9.45;8.40;;;22.40;99.90;;;;;;6240614;23;20426;-42
2023/08/24 07:55:47;;;;;;;9.68;8.68;;;22.30;99.90;;;;;;6242387;23;20055;-44
2023/08/24 07:58:13;;;;;;;9.23;8.15;;;22.30;99.90;;;;;;6242555;23;20061;-43
2023/08/24 08:00:39;;;;;;;9.48;7.88;;;22.40;99.90;;;;;;6241752;23;20320;-43
2023/08/24 08:03:05;;;;;;;13.60;7.90;;;22.40;99.90;;;;;;6242365;22;20714;-44
2023/08/24 08:05:30;;;;;;;12.13;8.43;;;22.50;99.90;;;;;;6244896;22;20012;-43
2023/08/24 08:07:56;;;;;;;8.25;7.43;;;22.60;99.90;;;;;;6244040;23;20095;-45
2023/08/24 08:10:21;;;;;;;9.95;8.95;;;22.80;99.90;;;;;;6244020;23;20012;-47
2023/08/24 08:12:47;;;;;;;11.57;8.10;;;22.80;99.90;;;;;;6243894;23;20016;-44
2023/08/24 08:15:13;;;;;;;10.52;9.45;;;22.80;99.90;;;;;;6243012;23;20325;-45
2023/08/24 08:17:39;;;;;;;11.77;8.85;;;23.10;99.90;;;;;;6243815;22;20016;-47
2023/08/24 08:20:05;;;;;;;11.82;9.13;;;22.90;99.90;;;;;;6243362;22;20012;-44
2023/08/24 08:22:35;;;;;;;10.90;9.10;;;23.10;99.90;;;;;;6241787;22;20029;-45
2023/08/24 08:25:01;;;;;;;10.30;8.35;;;23.20;99.90;;;;;;6242751;23;20016;-46
2023/08/24 08:27:27;;;;;;;9.55;8.07;;;23.30;99.90;;;;;;6245607;22;20026;-46
2023/08/24 08:29:52;;;;;;;9.05;8.13;;;23.60;99.90;;;;;;6245706;23;20043;-49
2023/08/24 08:32:18;;;;;;;9.60;8.10;;;23.60;99.90;;;;;;6245561;23;20008;-45
2023/08/24 08:34:44;;;;;;;8.65;7.80;;;23.50;99.90;;;;;;6246238;23;20087;-44
2023/08/24 08:37:10;;;;;;;9.65;8.05;;;23.60;99.90;;;;;;6245186;23;20087;-43
2023/08/24 08:39:36;;;;;;;10.40;8.00;;;23.90;99.90;;;;;;6244951;22;20087;-44
2023/08/24 08:42:02;;;;;;;9.07;8.07;;;24.20;99.90;;;;;;6245537;23;20554;-47
2023/08/24 08:44:31;;;;;;;12.57;7.80;;;24.30;99.90;;;;;;6246809;22;20040;-44
2023/08/24 08:46:57;;;;;;;16.23;8.25;;;24.60;99.90;;;;;;6247789;22;20016;-45
2023/08/24 08:49:23;;;;;;;9.10;7.72;;;24.50;99.90;;;;;;6245785;23;20016;-46
2023/08/24 08:51:51;;;;;;;9.68;7.60;;;24.70;99.90;;;;;;6247060;22;20012;-47
2023/08/24 08:54:16;;;;;;;10.35;7.22;;;24.40;99.90;;;;;;6245625;22;20012;-45
2023/08/24 08:56:42;;;;;;;9.57;7.45;;;24.80;99.90;;;;;;6246602;23;20345;-45
2023/08/24 08:59:11;;;;;;;10.52;7.57;;;25.10;99.90;;;;;;6246951;22;20016;-45
2023/08/24 09:01:38;;;;;;;7.80;7.00;;;25.30;99.90;;;;;;6247121;22;20027;-47
2023/08/24 09:04:06;;;;;;;8.32;7.25;;;25.30;99.90;;;;;;6246729;22;20008;-46
2023/08/24 09:06:31;;;;;;;8.95;7.30;;;25.00;99.90;;;;;;6247107;22;20091;-48
2023/08/24 09:08:57;;;;;;;8.48;7.30;;;25.50;99.90;;;;;;6246028;23;20048;-45
2023/08/24 09:11:23;;;;;;;9.82;7.05;;;25.60;99.90;;;;;;6246465;22;20043;-46
2023/08/24 09:13:49;;;;;;;9.07;6.65;;;25.50;99.90;;;;;;6245252;22;20058;-44
2023/08/24 09:16:17;;;;;;;10.00;7.03;;;25.70;99.90;;;;;;6246752;23;20052;-45
2023/08/24 09:18:47;;;;;;;8.25;6.20;;;26.00;99.90;;;;;;6246924;22;20012;-44
2023/08/24 09:21:15;;;;;;;10.45;7.53;;;25.90;99.90;;;;;;6246454;22;20020;-44
2023/08/24 09:23:51;;;;;;;7.32;6.63;;;26.20;99.90;;;;;;6245976;22;20020;-44
2023/08/24 09:26:26;;;;;;;8.00;7.25;;;26.10;99.90;;;;;;6246517;22;20016;-46
2023/08/24 09:28:52;;;;;;;6.80;6.20;;;26.10;99.90;;;;;;6246963;22;20035;-45
2023/08/24 09:31:17;;;;;;;8.43;6.43;;;26.30;99.90;;;;;;6246727;23;20498;-46
2023/08/24 09:33:46;;;;;;;9.98;6.25;;;26.30;99.90;;;;;;6244377;23;20042;-45
2023/08/24 09:36:14;;;;;;;7.80;6.97;;;26.50;99.90;;;;;;6241340;22;20020;-45
2023/08/24 09:38:47;;;;;;;7.40;6.70;;;;;;;;;;6243403;22;20023;-45
2023/08/24 09:41:13;;;;;;;9.60;6.45;;;26.90;99.90;;;;;;6245988;22;20026;-44
2023/08/24 09:43:40;;;;;;;9.80;6.30;;;26.90;99.90;;;;;;6246019;23;20039;-45
2023/08/24 09:46:07;;;;;;;8.20;7.20;;;26.60;99.90;;;;;;6245843;23;20053;-45
2023/08/24 09:48:33;;;;;;;7.90;7.13;;;26.50;99.90;;;;;;6245406;22;20050;-46
2023/08/24 09:51:03;;;;;;;7.88;6.75;;;26.50;99.90;;;;;;6246026;22;20083;-47
2023/08/24 09:53:36;;;;;;;9.93;6.82;;;26.70;99.90;;;;;;6245559;22;20393;-44
2023/08/24 09:56:03;;;;;;;8.88;6.70;;;26.80;99.90;;;;;;6246433;22;20026;-45
2023/08/24 09:58:29;;;;;;;7.40;6.70;;;26.60;99.90;;;;;;6246124;22;20079;-45
2023/08/24 10:00:55;;;;;;;7.05;6.45;;;26.40;99.90;;;;;;6246342;22;20020;-45
2023/08/24 10:03:25;;;;;;;7.13;5.97;;;26.30;99.90;;;;;;6246074;23;20018;-47
2023/08/24 10:05:58;;;;;;;6.70;6.00;;;26.40;99.90;;;;;;6246233;22;20043;-43
2023/08/24 10:08:29;;;;;;;8.20;6.32;;;26.40;99.90;;;;;;6246006;22;20012;-45
2023/08/24 10:10:58;;;;;;;9.45;6.60;;;26.00;99.90;;;;;;6245680;22;20110;-44
2023/08/24 10:13:53;;;;;;;8.27;6.28;;;26.00;99.90;;;;;;6243287;23;20008;-44
2023/08/24 10:16:21;;;;;;;6.35;5.68;;;26.30;99.90;;;;;;6243056;23;20031;-46
2023/08/24 10:18:48;;;;;;;8.77;6.15;;;26.40;99.90;;;;;;6246062;22;20024;-44
2023/08/24 10:21:14;;;;;;;8.00;6.60;;;26.30;99.90;;;;;;6244901;22;20024;-46
2023/08/24 10:23:43;;;;;;;9.73;5.95;;;26.40;99.90;;;;;;6244804;22;20337;-46
2023/08/24 10:26:12;;;;;;;8.32;6.20;;;26.40;99.90;;;;;;6246209;22;20302;-46
2023/08/24 10:28:40;;;;;;;6.28;5.55;;;26.10;99.90;;;;;;6243720;22;20079;-47
2023/08/24 10:31:06;;;;;;;6.63;5.72;;;26.10;99.90;;;;;;6244247;23;20023;-45
2023/08/24 10:33:34;;;;;;;7.72;5.57;;;26.10;99.90;;;;;;6242580;23;20043;-44
2023/08/24 10:35:59;;;;;;;8.38;5.78;;;25.90;99.90;;;;;;6243941;22;20309;-45
2023/08/24 10:38:27;;;;;;;12.50;5.85;;;25.70;99.90;;;;;;6243541;23;20020;-45
2023/08/24 10:40:54;;;;;;;8.50;5.38;;;25.60;99.90;;;;;;6243981;23;20095;-44
2023/08/24 10:43:20;;;;;;;7.45;5.65;;;25.60;99.90;;;;;;6243138;23;20016;-45
2023/08/24 10:46:03;;;;;;;8.27;5.37;;;25.50;99.90;;;;;;6244648;23;20087;-46
2023/08/24 10:48:49;;;;;;;6.75;5.15;;;25.60;99.90;;;;;;6217396;23;20070;-44
2023/08/24 10:51:21;;;;;;;6.60;5.32;;;25.40;99.90;;;;;;6217823;23;20460;-43
2023/08/24 10:53:58;;;;;;;9.52;5.30;;;25.40;99.90;;;;;;6242108;23;20016;-45
2023/08/24 10:56:40;;;;;;;7.38;5.53;;;25.50;99.90;;;;;;6243777;23;20070;-45
2023/08/24 10:59:17;;;;;;;8.10;5.30;;;25.40;99.90;;;;;;6215746;23;20439;-45
2023/08/24 11:01:54;;;;;;;7.28;5.30;;;25.60;99.90;;;;;;6217338;23;20020;-48
2023/08/24 11:04:20;;;;;;;8.45;4.72;;;25.50;99.90;;;;;;6243077;23;20023;-44
2023/08/24 11:06:53;;;;;;;7.65;5.70;;;25.60;99.90;;;;;;6242860;23;20123;-43
2023/08/24 11:09:19;;;;;;;7.00;5.93;;;25.60;99.90;;;;;;6242401;23;20016;-45
2023/08/24 11:11:59;;;;;;;8.38;6.30;;;25.80;99.90;;;;;;6240750;23;20020;-44
2023/08/24 11:14:26;;;;;;;7.50;6.20;;;25.90;99.90;;;;;;6244089;23;20009;-48
2023/08/24 11:16:53;;;;;;;8.13;5.65;;;25.90;99.90;;;;;;6242068;23;20016;-44
2023/08/24 11:19:19;;;;;;;6.82;6.03;;;26.00;99.90;;;;;;6243928;23;20088;-44
2023/08/24 11:21:46;;;;;;;6.88;5.03;;;25.80;99.90;;;;;;6216236;23;20381;-45
2023/08/24 11:24:12;;;;;;;;;;;25.90;99.90;;;;;;6243693;22;20023;-46
2023/08/24 11:26:46;;;;;;;6.73;5.73;;;26.10;99.90;;;;;;6242403;22;20284;-46
2023/08/24 11:29:12;;;;;;;6.82;5.80;;;26.10;99.90;;;;;;6244000;22;20016;-46
2023/08/24 11:31:39;;;;;;;6.43;5.28;;;26.00;99.90;;;;;;6244036;22;20100;-45
2023/08/24 11:34:07;;;;;;;8.80;5.63;;;26.10;99.90;;;;;;6239977;23;20012;-46
2023/08/24 11:36:41;;;;;;;8.80;5.63;;;26.10;99.90;;;;;;6243637;22;20412;-44
2023/08/24 11:39:13;;;;;;;7.53;5.57;;;26.10;99.90;;;;;;6243478;23;20108;-45
2023/08/24 11:41:40;;;;;;;8.25;5.53;;;26.40;99.90;;;;;;6246759;23;20383;-44
2023/08/24 11:44:06;;;;;;;6.82;5.63;;;26.30;99.90;;;;;;6245153;23;20129;-47
2023/08/24 11:46:31;;;;;;;9.52;6.00;;;26.20;99.90;;;;;;6245250;23;20077;-43
2023/08/24 11:48:59;;;;;;;10.90;6.35;;;26.30;99.90;;;;;;6245425;23;20016;-45
2023/08/24 11:51:25;;;;;;;6.47;5.82;;;26.50;99.90;;;;;;6218020;23;20016;-45
2023/08/24 11:53:51;;;;;;;7.55;6.03;;;26.40;99.90;;;;;;6245063;23;20015;-46
2023/08/24 11:56:18;;;;;;;6.40;5.80;;;26.50;99.90;;;;;;6245649;23;20073;-45
2023/08/24 11:58:47;;;;;;;7.88;6.30;;;26.40;99.90;;;;;;6244731;23;20242;-44
2023/08/24 12:01:13;;;;;;;6.55;5.95;;;26.40;99.90;;;;;;6243519;23;20272;-48
2023/08/24 12:03:39;;;;;;;7.05;5.63;;;26.20;99.90;;;;;;6244966;23;20070;-46
2023/08/24 12:06:14;;;;;;;7.37;6.67;;;26.00;99.90;;;;;;6244799;23;20051;-46
2023/08/24 12:08:41;;;;;;;6.65;5.97;;;25.90;99.90;;;;;;6217173;23;20066;-44
2023/08/24 12:11:20;;;;;;;8.05;6.03;;;25.70;99.90;;;;;;6218046;23;20012;-44
2023/08/24 12:13:50;;;;;;;7.30;5.95;;;25.70;99.90;;;;;;6244228;23;20039;-46
2023/08/24 12:16:17;;;;;;;8.77;5.78;;;25.80;99.90;;;;;;6245374;23;20086;-45
2023/08/24 12:18:48;;;;;;;7.03;5.72;;;26.00;99.90;;;;;;6244694;23;20468;-44
2023/08/24 12:21:14;;;;;;;7.35;6.15;;;26.00;99.90;;;;;;6243865;23;20016;-48
2023/08/24 12:23:40;;;;;;;7.82;5.85;;;26.10;99.90;;;;;;6244141;23;20090;-46
2023/08/24 12:26:07;;;;;;;10.65;7.22;;;26.30;99.90;;;;;;6244196;23;20444;-45
2023/08/24 12:28:34;;;;;;;6.88;6.07;;;26.50;99.90;;;;;;6246154;23;20020;-46
2023/08/24 12:31:03;;;;;;;10.32;6.55;;;26.80;99.90;;;;;;6243749;23;20012;-46
2023/08/24 12:33:32;;;;;;;8.05;6.05;;;27.10;99.90;;;;;;6242776;23;20020;-45
2023/08/24 12:35:58;;;;;;;8.40;6.20;;;27.10;99.90;;;;;;6242390;23;20023;-47
2023/08/24 12:38:25;;;;;;;11.43;7.70;;;27.40;99.90;;;;;;6242511;23;20052;-45
2023/08/24 12:40:51;;;;;;;8.85;5.72;;;27.80;99.90;;;;;;6242753;23;20023;-46
2023/08/24 12:43:17;;;;;;;8.40;6.40;;;28.50;99.90;;;;;;6244566;23;20560;-45
2023/08/24 12:45:46;;;;;;;8.68;6.97;;;28.80;99.90;;;;;;6240229;23;20020;-46